Share

Risco, MO

Peach Orchard (KMOGIDEO2) Elev 253 ft | 36.37 °N, 89.94 °W | Change Station

Current weather conditions updated 15 seconds ago

Clear
Clear
67.7 °F
Feels Like 67.7 °F
N
0.0
Wind Variable Wind from SSE
Gusts 5.0 mph
Sunrise 6:22 AM
Sunset 7:35 PM
Moon Waning Gibbous

Tomorrow is forecast to be Warmer than today.

Pressure 30.22 in
Visibility 10.0 miles
Clouds Clear
Dew Point 46 °F
Humidity 46%
Rainfall 0.00 in
Snow Depth Not available.
UV 1 out of 16
Pollen 9.70 out of 12
Air Quality Not available.
Flu Activity Sporadic
METAR KPOF 172253Z AUTO 19005KT 10SM CLR 19/04 A3021 RMK AO2 SLP232 T01940039

More Conditions Fewer Conditions

Pressure 30.22 in
Visibility 10.0 miles
Clouds Clear
Dew Point 46 °F
Humidity 46%
Rainfall 0.00 in
Snow Depth Not available.
UV 1 out of 16
Pollen 9.70 out of 12
Air Quality Not available.
Flu Activity Sporadic
METAR KPOF 172253Z AUTO 19005KT 10SM CLR 19/04 A3021 RMK AO2 SLP232 T01940039

More Conditions Fewer Conditions

10-Day Forecast

Almanac

Astronomy

Apr. 17, 2014 Rise Set
Actual Time 6:22 AM CDT 7:35 PM CDT
Civil Twilight 5:56 AM CDT 8:02 PM CDT
Nautical Twilight 5:24 AM CDT 8:34 PM CDT
Astronomical Twilight 4:51 AM CDT 9:07 PM CDT
Moon 10:17 PM CDT 7:57 AM CDT
Length of Visible Light 14h 05m
Length of Day
13h 12m
Tomorrow will be 2m 11s longer.
Waning Gibbous, 92% of the Moon is Illuminated
Today
Waning Gibbous
Apr 22
Last Quarter
Apr 29
New
May 6
First Quarter
May 14
Full

Today's Extremes

State Highs State Lows

Community

  • Morning Light
    Morning Light
  • New Day
    New Day
  • Lake Michigan Sunrise
    Lake Michigan Sunrise
  • sunset from izmir, narlıdere
    sunset from izmir, narlıdere
  • oregon cherry
    oregon cherry

WunderPhotos

Upload Photos

1,702,159 photos uploaded!

WunderBlogs® & News

Nearby

Snow Depth

Station Depth Elevation
No new snow has been reported.

Coastal Water Temperatures

Place Temperature
No Stations Reporting

Earthquake Activity

City Distance Mag. Time & Date
No recent earthquake activity has been reported nearby.
Minimum magnitude displayed is 2.5.

Nearby Weather Stations

Station Location Temp. Heat Index Dew Point Humidity Wind Precip. Elev Updated Type
Peach Orchard, Gideon, MO 67.7 °F - 46 °F 46% SSE  at  0.0 mph 0.00 in / hr 253 ft 6:09 PM CDT Rapid Fire
Dexterweather.com, Dexter, MO 66.4 °F - 41 °F 40% SE  at  0.0 mph 0.00 in / hr 358 ft 6:09 PM CDT Rapid Fire
MesoWest DEXTER , Dexter, MO 62 °F - - - North  at  - 0.00 in / hr 362 ft 5:10 PM CDT MADIS
MesoWest PIGGOT , Piggott, AR 74 °F 72 °F - - North  at  - 0.00 in / hr 287 ft 4:45 PM CDT MADIS
SEMO Electric Coop, Sikeston, MO 67.0 °F - 42 °F 41% WSW  at  3.0 mph 0.00 in / hr 322 ft 6:00 PM CDT Normal

Show More Stations Show Fewer Stations

What do you think?

We're not finished. Please let us know what you like, what you don't like, and what you are still missing.